Time;durP1;ratioP1;P1;durP2;ratioP2;P2;SDS_P1;SDS_P2;PMS_P1;PMS_P2;Temp;Humidity;BMP_temperature;BMP_pressure;BME280_temperature;BME280_humidity;BME280_pressure;Samples;Min_cycle;Max_cycle;Signal;HPM_P1;HPM_P2
2022/04/02 00:02:00;;;;;;;4.97;3.50;;;-0.10;99.90;;;;;;5082828;28;20887;-40
2022/04/02 00:04:26;;;;;;;6.45;3.75;;;-0.10;99.90;;;;;;5070192;28;20052;-41
2022/04/02 00:06:54;;;;;;;5.30;3.35;;;-0.20;99.90;;;;;;5080961;28;20113;-39
2022/04/02 00:09:22;;;;;;;6.75;3.47;;;-0.20;99.90;;;;;;5080176;28;20032;-39
2022/04/02 00:11:49;;;;;;;5.35;3.38;;;-0.20;99.90;;;;;;5084402;28;20132;-38
2022/04/02 00:14:15;;;;;;;5.07;2.90;;;-0.20;99.90;;;;;;5085818;28;20051;-39
2022/04/02 00:16:41;;;;;;;9.63;3.95;;;-0.10;99.90;;;;;;5085496;28;20063;-39
2022/04/02 00:19:08;;;;;;;6.88;3.47;;;-0.20;99.90;;;;;;5079238;28;20048;-39
2022/04/02 00:21:34;;;;;;;7.60;3.17;;;-0.20;99.90;;;;;;5068877;28;20093;-40
2022/04/02 00:23:59;;;;;;;6.13;3.10;;;-0.20;99.90;;;;;;5075081;28;20075;-39
2022/04/02 00:26:26;;;;;;;5.13;3.53;;;-0.20;99.90;;;;;;5084883;28;20565;-39
2022/04/02 00:28:51;;;;;;;7.25;3.17;;;-0.20;99.90;;;;;;5086235;28;20100;-38
2022/04/02 00:31:19;;;;;;;7.75;3.25;;;-0.10;99.90;;;;;;5085471;28;20414;-39
2022/04/02 00:33:47;;;;;;;7.88;3.65;;;-0.10;99.90;;;;;;5085690;28;20043;-40
2022/04/02 00:36:14;;;;;;;4.68;3.53;;;-0.10;99.90;;;;;;5063939;28;20092;-38
2022/04/02 00:38:45;;;;;;;4.72;3.10;;;-0.10;99.90;;;;;;5085644;28;20056;-39
2022/04/02 00:41:13;;;;;;;5.50;2.75;;;-0.10;99.90;;;;;;5084489;28;20130;-39
2022/04/02 00:43:43;;;;;;;7.07;3.28;;;-0.10;99.90;;;;;;5085956;28;20357;-38
2022/04/02 00:46:12;;;;;;;5.25;3.40;;;-0.10;99.90;;;;;;5085433;28;20051;-39
2022/04/02 00:48:41;;;;;;;7.68;4.18;;;-0.10;99.90;;;;;;5086367;28;20466;-46
2022/04/02 00:51:16;;;;;;;7.55;3.70;;;-0.10;99.90;;;;;;5072919;28;20044;-39
2022/04/02 00:53:47;;;;;;;5.38;3.35;;;-0.10;99.90;;;;;;5085748;28;20090;-39
2022/04/02 00:56:14;;;;;;;7.57;3.38;;;-0.10;99.90;;;;;;5084739;28;20048;-42
2022/04/02 00:58:40;;;;;;;6.40;3.65;;;-0.10;99.90;;;;;;5065597;28;20517;-39
2022/04/02 01:01:06;;;;;;;6.55;3.30;;;-0.10;99.90;;;;;;5087035;28;20043;-39
2022/04/02 01:03:33;;;;;;;6.70;3.65;;;-0.10;99.90;;;;;;5086155;28;20039;-39
2022/04/02 01:06:05;;;;;;;5.22;3.47;;;-0.20;99.90;;;;;;5080664;28;20054;-39
2022/04/02 01:08:31;;;;;;;6.13;3.03;;;-0.20;99.90;;;;;;5058517;28;20083;-38
2022/04/02 01:11:00;;;;;;;5.72;3.33;;;-0.30;99.90;;;;;;5086745;28;20503;-47
2022/04/02 01:13:27;;;;;;;5.22;3.17;;;-0.40;99.90;;;;;;5071196;28;20044;-39
2022/04/02 01:15:53;;;;;;;7.10;4.10;;;-0.40;99.90;;;;;;5066621;28;20096;-40
2022/04/02 01:18:19;;;;;;;5.75;3.83;;;-0.50;99.90;;;;;;5063732;28;20040;-39
2022/04/02 01:20:45;;;;;;;5.53;3.75;;;-0.50;99.90;;;;;;5080531;28;20638;-39
2022/04/02 01:23:10;;;;;;;6.28;3.60;;;-0.50;99.90;;;;;;5082294;28;20051;-39
2022/04/02 01:25:36;;;;;;;6.15;3.70;;;-0.50;99.90;;;;;;5081667;28;20040;-39
2022/04/02 01:28:03;;;;;;;11.38;3.50;;;-0.50;99.90;;;;;;5081813;28;20105;-39
2022/04/02 01:30:30;;;;;;;8.25;3.55;;;-0.50;99.90;;;;;;5072357;28;20487;-39
2022/04/02 01:32:56;;;;;;;6.20;3.83;;;-0.50;99.90;;;;;;5079827;28;20052;-39
2022/04/02 01:35:22;;;;;;;7.18;4.22;;;-0.60;99.90;;;;;;5082196;28;20521;-39
2022/04/02 01:37:50;;;;;;;7.32;4.35;;;-0.60;99.90;;;;;;5082461;28;20283;-39
2022/04/02 01:40:16;;;;;;;7.53;3.70;;;-0.60;99.90;;;;;;5069081;28;20137;-39
2022/04/02 01:42:43;;;;;;;6.93;3.80;;;-0.60;99.90;;;;;;5082490;28;20040;-39
2022/04/02 01:45:09;;;;;;;6.13;3.60;;;-0.60;99.90;;;;;;5059916;28;20413;-39
2022/04/02 01:47:35;;;;;;;6.82;3.80;;;-0.70;99.90;;;;;;5077089;28;20052;-39
2022/04/02 01:50:01;;;;;;;6.40;3.50;;;-0.70;99.90;;;;;;5073282;28;20044;-39
2022/04/02 01:52:27;;;;;;;5.22;3.60;;;-0.80;99.90;;;;;;5078124;28;20075;-39
2022/04/02 01:54:53;;;;;;;6.90;3.75;;;-0.80;99.90;;;;;;5073852;28;20059;-39
2022/04/02 01:57:19;;;;;;;7.57;3.92;;;-0.80;99.90;;;;;;5061567;28;20055;-39
2022/04/02 01:59:47;;;;;;;5.13;3.50;;;-0.90;99.90;;;;;;5082528;28;20532;-39
2022/04/02 02:02:14;;;;;;;5.60;3.28;;;-0.90;99.90;;;;;;5073629;28;20125;-39
2022/04/02 02:04:40;;;;;;;6.38;4.25;;;-0.90;99.90;;;;;;5081275;28;20099;-39
2022/04/02 02:07:06;;;;;;;5.22;3.20;;;-0.90;99.90;;;;;;5074520;28;20801;-39
2022/04/02 02:09:33;;;;;;;5.90;3.53;;;-0.90;99.90;;;;;;5082836;28;20048;-39
2022/04/02 02:12:02;;;;;;;12.18;3.90;;;-0.90;99.90;;;;;;5081891;28;20457;-40
2022/04/02 02:14:29;;;;;;;7.35;4.40;;;-1.00;99.90;;;;;;5067663;28;20073;-39
2022/04/02 02:16:55;;;;;;;11.32;4.05;;;-0.90;99.90;;;;;;5082885;28;20494;-39
2022/04/02 02:19:21;;;;;;;11.02;3.38;;;-0.80;99.90;;;;;;5081009;28;20049;-38
2022/04/02 02:21:46;;;;;;;8.45;4.80;;;-0.70;99.90;;;;;;5049293;28;20856;-39
2022/04/02 02:24:12;;;;;;;9.63;4.15;;;-0.70;99.90;;;;;;5082418;28;20048;-40
2022/04/02 02:26:39;;;;;;;5.05;3.55;;;-0.60;99.90;;;;;;5084329;28;20052;-39
2022/04/02 02:29:06;;;;;;;6.03;3.83;;;-0.60;99.90;;;;;;5084485;28;20052;-39
2022/04/02 02:31:35;;;;;;;9.15;4.13;;;-0.50;99.90;;;;;;5076746;28;20525;-40
2022/04/02 02:36:46;;;;;;;7.80;3.72;;;-0.40;99.90;;;;;;5074386;28;20044;-39
2022/04/02 02:39:11;;;;;;;8.05;4.28;;;-0.40;99.90;;;;;;5080157;28;20547;-39
2022/04/02 02:41:37;;;;;;;7.22;3.70;;;-0.40;99.90;;;;;;5077231;28;20050;-39
2022/04/02 02:44:04;;;;;;;7.47;3.65;;;-0.50;99.90;;;;;;5074898;28;20049;-39
2022/04/02 02:46:32;;;;;;;5.95;4.28;;;-0.60;99.90;;;;;;5073246;28;20151;-39
2022/04/02 02:48:57;;;;;;;5.97;3.55;;;-0.70;99.90;;;;;;5061295;28;20376;-39
2022/04/02 02:51:26;;;;;;;9.63;3.90;;;-0.80;99.90;;;;;;5080887;28;20040;-39
2022/04/02 02:53:52;;;;;;;5.22;3.53;;;-0.90;99.90;;;;;;5075849;28;20125;-39
2022/04/02 02:56:18;;;;;;;5.22;3.58;;;-1.00;99.90;;;;;;5080888;28;20126;-39
2022/04/02 02:58:44;;;;;;;7.57;4.32;;;-1.00;99.90;;;;;;5080399;28;20509;-39
2022/04/02 03:01:11;;;;;;;7.15;4.25;;;-1.00;99.90;;;;;;5079013;28;20048;-39
2022/04/02 03:03:38;;;;;;;7.75;4.00;;;-1.10;99.90;;;;;;5080256;28;20051;-39
2022/04/02 03:06:04;;;;;;;6.32;3.95;;;-1.10;99.90;;;;;;5079567;28;20084;-39
2022/04/02 03:08:30;;;;;;;6.80;4.20;;;-1.10;99.90;;;;;;5079866;28;20086;-39
2022/04/02 03:10:56;;;;;;;9.23;3.83;;;-1.10;99.90;;;;;;5078003;28;20052;-39
2022/04/02 03:13:22;;;;;;;5.32;3.88;;;-1.10;99.90;;;;;;5072446;28;20614;-39
2022/04/02 03:15:48;;;;;;;10.35;3.90;;;-1.10;99.90;;;;;;5059023;28;20066;-38
2022/04/02 03:18:14;;;;;;;7.60;3.40;;;-1.10;99.90;;;;;;5076979;28;20048;-39
2022/04/02 03:20:41;;;;;;;9.95;4.10;;;-1.10;99.90;;;;;;5051132;28;20454;-39
2022/04/02 03:23:08;;;;;;;8.00;3.13;;;-1.10;99.90;;;;;;5077842;28;20048;-39
2022/04/02 03:25:34;;;;;;;6.43;3.78;;;-1.00;99.90;;;;;;5081745;28;20368;-39
2022/04/02 03:28:00;;;;;;;8.65;3.47;;;-0.90;99.90;;;;;;5080420;28;20650;-39
2022/04/02 03:30:26;;;;;;;6.78;3.25;;;-1.00;99.90;;;;;;5080965;28;20044;-39
2022/04/02 03:32:52;;;;;;;12.27;4.13;;;-1.00;99.90;;;;;;5083873;28;20082;-38
2022/04/02 03:35:19;;;;;;;5.70;3.10;;;-0.90;99.90;;;;;;5073503;28;20048;-39
2022/04/02 03:37:47;;;;;;;7.80;4.10;;;-0.90;99.90;;;;;;5055204;28;20044;-39
2022/04/02 03:40:20;;;;;;;5.95;3.40;;;-0.90;99.90;;;;;;5078924;28;20052;-39
2022/04/02 03:42:46;;;;;;;6.70;3.50;;;-0.80;99.90;;;;;;5077991;28;20052;-39
2022/04/02 03:45:15;;;;;;;5.80;3.20;;;-0.70;99.90;;;;;;5059318;28;20048;-39
2022/04/02 03:47:41;;;;;;;11.68;4.03;;;-0.70;99.90;;;;;;5079488;28;20052;-39
2022/04/02 03:50:07;;;;;;;5.25;3.50;;;-0.70;99.90;;;;;;5078916;28;20051;-39
2022/04/02 03:52:32;;;;;;;7.38;3.53;;;-0.90;99.90;;;;;;5079017;28;20052;-39
2022/04/02 03:54:58;;;;;;;7.93;3.30;;;-1.10;99.90;;;;;;5072875;28;20102;-39
2022/04/02 03:57:24;;;;;;;7.82;3.00;;;-1.20;99.90;;;;;;5069478;28;20070;-39
2022/04/02 03:59:50;;;;;;;7.75;3.10;;;-1.20;99.90;;;;;;5078799;28;20036;-39
2022/04/02 04:02:16;;;;;;;5.75;3.22;;;-1.20;99.90;;;;;;5070400;28;20048;-40
2022/04/02 04:04:42;;;;;;;6.43;3.28;;;-1.10;99.90;;;;;;5055347;28;20534;-39
2022/04/02 04:07:08;;;;;;;4.93;2.78;;;-1.00;99.90;;;;;;5078326;28;20407;-39
2022/04/02 04:09:36;;;;;;;5.40;3.10;;;-0.90;99.90;;;;;;5051032;28;20056;-39
2022/04/02 04:12:02;;;;;;;5.78;3.40;;;-0.90;99.90;;;;;;5067064;28;20083;-39
2022/04/02 04:14:28;;;;;;;6.32;2.83;;;-0.90;99.90;;;;;;5054822;28;20457;-39
2022/04/02 04:16:54;;;;;;;9.75;3.40;;;-1.00;99.90;;;;;;5077210;28;20044;-40
2022/04/02 04:19:21;;;;;;;6.47;2.97;;;-1.10;99.90;;;;;;5054732;28;20530;-40
2022/04/02 04:21:48;;;;;;;4.65;2.90;;;-1.20;99.90;;;;;;5069008;28;20052;-39
2022/04/02 04:24:17;;;;;;;5.03;2.80;;;-1.30;99.90;;;;;;5078893;28;20055;-39
2022/04/02 04:26:43;;;;;;;6.45;2.85;;;-1.30;99.90;;;;;;5071781;28;20130;-39
2022/04/02 04:29:09;;;;;;;5.30;3.00;;;-1.40;99.90;;;;;;5072596;28;20418;-39
2022/04/02 04:31:36;;;;;;;5.50;2.67;;;-1.40;99.90;;;;;;5077186;28;20048;-39
2022/04/02 04:34:02;;;;;;;6.15;2.85;;;-1.40;99.90;;;;;;5071820;28;20055;-39
2022/04/02 04:36:29;;;;;;;5.05;2.47;;;-1.50;99.90;;;;;;5080192;28;20083;-39
2022/04/02 04:38:58;;;;;;;6.07;2.92;;;-1.50;99.90;;;;;;5084034;28;20051;-43
2022/04/02 04:41:24;;;;;;;7.32;2.95;;;-1.50;99.90;;;;;;5079725;28;20165;-45
2022/04/02 04:43:53;;;;;;;4.63;2.25;;;-1.50;99.90;;;;;;5078538;28;20096;-39
2022/04/02 04:46:20;;;;;;;7.35;2.45;;;-1.50;99.90;;;;;;5078609;28;20136;-40
2022/04/02 04:48:47;;;;;;;4.63;2.50;;;-1.50;99.90;;;;;;5072373;28;20052;-39
2022/04/02 04:51:16;;;;;;;8.95;2.30;;;-1.40;99.90;;;;;;5054636;28;20136;-39
2022/04/02 04:53:43;;;;;;;4.65;2.20;;;-1.30;99.90;;;;;;5060557;28;20478;-39
2022/04/02 04:56:09;;;;;;;7.53;3.17;;;-1.20;99.90;;;;;;5078828;28;20593;-39
2022/04/02 04:58:35;;;;;;;5.20;2.50;;;-1.20;99.90;;;;;;5081018;28;20055;-39
2022/04/02 05:01:01;;;;;;;6.85;2.40;;;-1.20;99.90;;;;;;5083244;28;20047;-39
2022/04/02 05:03:27;;;;;;;4.57;2.55;;;-1.30;99.90;;;;;;5082752;28;20060;-39
2022/04/02 05:05:55;;;;;;;18.23;3.70;;;-1.20;99.90;;;;;;5077435;28;20048;-39
2022/04/02 05:08:22;;;;;;;39.47;3.75;;;-1.10;99.90;;;;;;5081499;28;20140;-39
2022/04/02 05:10:48;;;;;;;6.50;2.95;;;-1.10;99.90;;;;;;5083913;28;20503;-39
2022/04/02 05:13:14;;;;;;;5.05;2.28;;;-1.20;99.90;;;;;;5078099;28;20052;-39
2022/04/02 05:15:49;;;;;;;5.38;2.55;;;-1.20;99.90;;;;;;5076368;28;20131;-38
2022/04/02 05:18:17;;;;;;;8.55;3.00;;;-1.10;99.90;;;;;;5081424;28;20036;-39
2022/04/02 05:20:43;;;;;;;5.40;1.98;;;-1.10;99.90;;;;;;5077215;28;20051;-39
2022/04/02 05:23:09;;;;;;;4.47;2.47;;;-1.10;99.90;;;;;;5053813;28;20052;-39
2022/04/02 05:25:35;;;;;;;6.85;1.98;;;-1.00;99.90;;;;;;5062090;28;20050;-39
2022/04/02 05:28:05;;;;;;;5.50;1.98;;;-0.90;99.90;;;;;;5074753;28;20109;-39
2022/04/02 05:30:33;;;;;;;4.85;2.10;;;-0.80;99.90;;;;;;5058349;28;20056;-39
2022/04/02 05:32:59;;;;;;;4.43;3.28;;;-0.70;99.90;;;;;;5082062;28;20048;-39
2022/04/02 05:35:29;;;;;;;7.63;2.50;;;-0.70;99.90;;;;;;5083162;28;20047;-39
2022/04/02 05:37:55;;;;;;;5.53;2.78;;;-0.70;99.90;;;;;;5078700;28;20054;-40
2022/04/02 05:40:21;;;;;;;4.88;2.55;;;-0.60;99.90;;;;;;5079432;28;20045;-39
2022/04/02 05:42:47;;;;;;;4.88;2.00;;;-0.50;99.90;;;;;;5081637;28;20147;-39
2022/04/02 05:45:15;;;;;;;3.55;1.75;;;-0.40;99.90;;;;;;5076032;28;20067;-40
2022/04/02 05:47:49;;;;;;;4.78;1.83;;;-0.40;99.90;;;;;;5075953;28;20112;-39
2022/04/02 05:50:17;;;;;;;4.80;1.67;;;-0.50;99.90;;;;;;5081992;28;20046;-40
2022/04/02 05:52:42;;;;;;;15.65;2.70;;;-0.50;99.90;;;;;;5077435;28;20048;-39
2022/04/02 05:55:12;;;;;;;5.10;2.22;;;-0.50;99.90;;;;;;5082103;28;20181;-40
2022/04/02 05:57:40;;;;;;;5.90;1.80;;;-0.50;99.90;;;;;;5050614;28;20746;-38
2022/04/02 06:00:12;;;;;;;4.60;1.88;;;-0.40;99.90;;;;;;5063638;28;20164;-39
2022/04/02 06:02:38;;;;;;;5.50;2.08;;;-0.10;99.90;;;;;;5083254;28;20048;-39
2022/04/02 06:05:07;;;;;;;6.93;2.03;;;0.20;99.90;;;;;;5084273;28;20052;-39
2022/04/02 06:07:34;;;;;;;4.15;1.80;;;0.40;99.90;;;;;;5083405;28;20056;-39
2022/04/02 06:10:02;;;;;;;4.75;1.60;;;0.70;99.90;;;;;;5076513;28;20131;-39
2022/04/02 06:12:30;;;;;;;5.90;2.03;;;0.70;99.90;;;;;;5082967;28;20464;-40
2022/04/02 06:14:56;;;;;;;4.97;1.92;;;0.90;99.90;;;;;;5083495;28;20521;-39
2022/04/02 06:17:31;;;;;;;5.18;1.60;;;1.10;99.90;;;;;;5075304;28;20445;-39
2022/04/02 06:19:57;;;;;;;2.63;1.48;;;1.30;99.90;;;;;;5080196;28;20044;-39
2022/04/02 06:22:22;;;;;;;3.08;1.80;;;1.40;99.90;;;;;;5081377;28;20514;-39
2022/04/02 06:24:49;;;;;;;4.45;2.05;;;1.60;99.90;;;;;;5079638;28;20067;-40
2022/04/02 06:27:15;;;;;;;3.58;1.90;;;2.00;99.90;;;;;;5076195;28;20041;-39
2022/04/02 06:29:41;;;;;;;4.88;2.03;;;2.20;99.90;;;;;;5070239;28;20114;-40
2022/04/02 06:32:07;;;;;;;5.25;1.92;;;2.30;99.90;;;;;;5082681;28;20055;-39
2022/04/02 06:34:33;;;;;;;4.70;2.10;;;2.40;99.90;;;;;;5080395;28;20486;-39
2022/04/02 06:36:58;;;;;;;3.97;2.10;;;2.60;99.90;;;;;;5078879;28;20059;-40
2022/04/02 06:39:30;;;;;;;2.53;1.80;;;2.60;99.90;;;;;;5078791;28;20040;-39
2022/04/02 06:41:55;;;;;;;3.15;1.55;;;2.40;99.90;;;;;;5082255;28;20048;-39
2022/04/02 06:44:21;;;;;;;5.60;2.50;;;2.30;99.90;;;;;;5071242;28;20060;-39
2022/04/02 06:46:47;;;;;;;6.25;1.83;;;2.20;99.90;;;;;;5077011;28;20052;-39
2022/04/02 06:49:12;;;;;;;3.95;1.88;;;2.10;99.90;;;;;;5075849;28;20075;-41
2022/04/02 06:51:38;;;;;;;6.00;2.10;;;2.10;99.90;;;;;;5071286;28;20904;-50
2022/04/02 06:54:05;;;;;;;3.65;1.70;;;2.10;99.90;;;;;;5081860;28;20059;-39
2022/04/02 06:56:31;;;;;;;5.93;2.20;;;2.10;99.90;;;;;;5080794;28;20652;-41
2022/04/02 06:58:57;;;;;;;3.50;1.95;;;2.10;99.90;;;;;;5080462;28;20055;-40
2022/04/02 07:01:25;;;;;;;3.30;2.20;;;2.10;99.90;;;;;;5068189;28;20040;-39
2022/04/02 07:03:52;;;;;;;4.13;2.08;;;2.10;99.90;;;;;;5078504;28;20036;-40
2022/04/02 07:06:18;;;;;;;6.22;2.45;;;2.10;99.90;;;;;;5077193;28;20119;-39
2022/04/02 07:08:44;;;;;;;8.02;3.10;;;2.00;99.90;;;;;;5071593;28;20558;-39
2022/04/02 07:11:09;;;;;;;5.85;2.50;;;1.90;99.90;;;;;;5081050;28;20032;-39
2022/04/02 07:13:35;;;;;;;4.85;2.15;;;1.80;99.90;;;;;;5072530;28;20620;-39
2022/04/02 07:16:02;;;;;;;4.47;1.90;;;1.80;99.90;;;;;;5076049;28;20373;-39
2022/04/02 07:18:30;;;;;;;7.25;2.33;;;1.90;99.90;;;;;;5057454;28;20068;-39
2022/04/02 07:21:00;;;;;;;5.43;2.20;;;2.00;99.90;;;;;;5077103;28;20051;-39
2022/04/02 07:23:31;;;;;;;7.95;2.25;;;2.00;99.90;;;;;;5080268;28;20593;-39
2022/04/02 07:25:57;;;;;;;3.80;1.67;;;2.10;99.90;;;;;;5073670;28;20048;-40
2022/04/02 07:28:25;;;;;;;4.68;1.90;;;2.20;99.90;;;;;;5078662;28;20109;-40
2022/04/02 07:30:51;;;;;;;3.90;2.08;;;2.30;99.90;;;;;;5073068;28;20052;-39
2022/04/02 07:33:17;;;;;;;4.65;2.80;;;2.50;99.90;;;;;;5066282;28;20503;-40
2022/04/02 07:36:08;;;;;;;6.00;2.80;;;2.60;99.90;;;;;;5066929;28;20093;-39
2022/04/02 07:38:58;;;;;;;4.88;2.55;;;2.70;99.90;;;;;;5053411;28;20064;-40
2022/04/02 07:41:38;;;;;;;7.68;2.33;;;2.70;99.90;;;;;;5075603;28;20054;-40
2022/04/02 07:44:20;;;;;;;4.15;2.15;;;2.90;99.90;;;;;;5066301;28;20048;-40
2022/04/02 07:46:47;;;;;;;6.60;2.60;;;3.00;99.90;;;;;;5067489;28;20881;-39
2022/04/02 07:49:18;;;;;;;5.50;3.17;;;3.30;99.90;;;;;;5047909;28;20498;-39
2022/04/02 07:51:52;;;;;;;8.43;2.85;;;3.50;99.90;;;;;;5073405;28;20517;-40
2022/04/02 07:54:24;;;;;;;8.70;2.83;;;3.80;99.90;;;;;;5078411;28;20082;-39
2022/04/02 07:57:02;;;;;;;5.35;3.00;;;3.90;99.90;;;;;;5076482;28;20063;-39
2022/04/02 07:59:36;;;;;;;4.90;2.40;;;4.20;99.90;;;;;;5079785;28;20561;-39
2022/04/02 08:02:03;;;;;;;4.47;2.22;;;4.20;99.90;;;;;;5080517;28;20557;-39
2022/04/02 08:04:30;;;;;;;4.78;2.85;;;4.10;99.90;;;;;;5080418;28;20051;-39
2022/04/02 08:06:55;;;;;;;4.63;2.53;;;4.00;99.90;;;;;;5079192;28;20051;-40
2022/04/02 08:09:21;;;;;;;5.30;2.20;;;3.90;99.90;;;;;;5073157;28;20045;-39
2022/04/02 08:11:50;;;;;;;6.38;2.50;;;3.70;99.90;;;;;;5052111;28;20036;-39
2022/04/02 08:14:18;;;;;;;4.82;2.85;;;3.70;99.90;;;;;;5078996;28;20451;-40
2022/04/02 08:16:44;;;;;;;3.10;1.98;;;3.60;99.90;;;;;;5079203;28;20470;-39
2022/04/02 08:19:11;;;;;;;4.47;2.30;;;3.60;99.90;;;;;;5079854;28;20135;-40
2022/04/02 08:21:37;;;;;;;4.05;2.33;;;3.60;99.90;;;;;;5078972;28;20082;-39
2022/04/02 08:24:04;;;;;;;4.57;2.58;;;3.60;99.90;;;;;;5075767;28;20129;-39
2022/04/02 08:27:00;;;;;;;5.57;2.83;;;3.50;99.90;;;;;;5056304;28;20052;-40
2022/04/02 08:30:03;;;;;;;3.50;2.35;;;3.50;99.90;;;;;;5057251;28;20101;-39
2022/04/02 08:32:47;;;;;;;3.75;2.40;;;3.40;99.90;;;;;;5057189;28;20071;-39
2022/04/02 08:35:13;;;;;;;;;;;3.40;99.90;;;;;;5079492;28;20060;-39
2022/04/02 08:37:45;;;;;;;5.18;2.25;;;3.40;99.90;;;;;;5060692;28;19934;-39
2022/04/02 08:40:59;;;;;;;3.60;2.25;;;3.60;99.90;;;;;;5083504;28;20067;-40
2022/04/02 08:43:48;;;;;;;4.85;2.47;;;3.60;99.90;;;;;;4979198;28;20057;-39
2022/04/02 08:46:16;;;;;;;4.68;1.95;;;3.70;99.90;;;;;;4977309;28;20126;-39
2022/04/02 08:48:59;;;;;;;7.68;2.33;;;3.70;99.90;;;;;;4965899;28;20531;-40
2022/04/02 08:51:45;;;;;;;6.00;2.72;;;3.80;99.90;;;;;;4964383;28;20050;-39
2022/04/02 08:54:26;;;;;;;4.05;2.58;;;3.90;99.90;;;;;;4965694;28;20058;-41
2022/04/02 08:57:21;;;;;;;4.00;2.53;;;4.10;99.90;;;;;;4969593;28;20061;-40
2022/04/02 09:00:01;;;;;;;4.68;1.90;;;4.30;99.90;;;;;;4926772;29;20070;-39
2022/04/02 09:02:54;;;;;;;4.50;2.00;;;4.50;99.90;;;;;;4937552;29;20502;-40
2022/04/02 09:05:50;;;;;;;9.02;2.63;;;4.80;99.90;;;;;;4914949;29;20235;-40
2022/04/02 09:08:43;;;;;;;3.72;1.85;;;5.10;99.90;;;;;;4919411;29;20815;-39
2022/04/02 09:11:25;;;;;;;3.40;1.90;;;5.20;99.90;;;;;;4931739;29;20093;-39
2022/04/02 09:14:28;;;;;;;4.63;1.85;;;5.20;99.90;;;;;;4916543;29;20067;-39
2022/04/02 09:17:00;;;;;;;8.68;2.28;;;5.30;99.90;;;;;;4924411;29;20051;-40
2022/04/02 09:19:51;;;;;;;4.78;1.70;;;5.30;99.90;;;;;;4929262;28;20058;-41
2022/04/02 09:22:36;;;;;;;4.47;1.83;;;5.50;99.90;;;;;;4919125;29;20488;-39
2022/04/02 09:25:43;;;;;;;5.40;1.85;;;5.70;99.90;;;;;;4917922;29;20192;-39
2022/04/02 09:28:21;;;;;;;4.45;2.03;;;6.00;99.90;;;;;;4883352;29;20112;-41
2022/04/02 09:31:12;;;;;;;3.33;1.90;;;6.10;99.90;;;;;;4884052;29;20057;-39
2022/04/02 09:34:16;;;;;;;4.05;1.70;;;6.30;99.90;;;;;;4883180;29;20235;-40
2022/04/02 09:37:17;;;;;;;5.70;1.95;;;6.30;99.90;;;;;;4887790;29;20539;-39
2022/04/02 09:39:48;;;;;;;4.05;2.20;;;6.20;99.90;;;;;;4839917;29;20070;-40
2022/04/02 09:42:14;;;;;;;3.25;1.88;;;6.10;99.90;;;;;;4848046;29;20208;-39
2022/04/02 09:44:59;;;;;;;5.90;2.10;;;6.40;99.90;;;;;;4831544;29;20258;-39
2022/04/02 09:47:56;;;;;;;3.35;1.77;;;6.10;99.90;;;;;;4847606;29;20091;-40
2022/04/02 09:50:27;;;;;;;4.78;1.52;;;5.80;99.90;;;;;;4856584;29;20059;-40
2022/04/02 09:53:36;;;;;;;3.92;1.75;;;5.50;99.90;;;;;;4851264;29;20740;-39
2022/04/02 09:56:01;;;;;;;4.45;1.70;;;5.30;99.90;;;;;;4829017;29;20114;-40
2022/04/02 09:58:46;;;;;;;2.42;1.63;;;5.30;99.90;;;;;;4830440;29;20108;-40
2022/04/02 10:01:28;;;;;;;5.63;1.50;;;5.40;99.90;;;;;;4865516;29;20269;-40
2022/04/02 10:04:00;;;;;;;2.67;1.40;;;5.40;99.90;;;;;;4901861;29;20106;-40
2022/04/02 10:06:43;;;;;;;4.97;1.70;;;5.20;99.90;;;;;;4902558;29;20185;-42
2022/04/02 10:09:13;;;;;;;3.05;1.40;;;5.20;99.90;;;;;;4904184;29;20492;-40
2022/04/02 10:11:52;;;;;;;3.90;1.42;;;5.10;99.90;;;;;;4905518;29;20094;-41
2022/04/02 10:14:27;;;;;;;4.30;1.33;;;5.10;99.90;;;;;;4906403;29;20063;-41
2022/04/02 10:17:01;;;;;;;2.88;1.60;;;5.40;99.90;;;;;;4943343;28;20058;-40
2022/04/02 10:19:35;;;;;;;2.90;1.60;;;5.70;99.90;;;;;;4959596;28;20059;-40
2022/04/02 10:22:04;;;;;;;3.35;1.33;;;6.00;99.90;;;;;;4959076;28;20059;-40
2022/04/02 10:24:38;;;;;;;4.80;2.00;;;6.10;99.90;;;;;;4942111;28;20043;-40
2022/04/02 10:27:07;;;;;;;3.75;1.27;;;6.20;99.90;;;;;;4959590;28;20073;-41
2022/04/02 10:29:51;;;;;;;3.75;1.33;;;6.30;99.70;;;;;;4942634;28;20058;-39
2022/04/02 10:32:36;;;;;;;9.27;2.42;;;6.50;99.40;;;;;;4997727;28;20060;-41
2022/04/02 10:35:11;;;;;;;2.35;1.10;;;6.50;98.40;;;;;;5036829;28;20041;-41
2022/04/02 10:38:01;;;;;;;3.28;1.58;;;6.50;98.10;;;;;;5054404;28;20403;-40
2022/04/02 10:40:31;;;;;;;3.25;1.90;;;6.10;99.00;;;;;;5036857;28;20498;-40
2022/04/02 10:43:06;;;;;;;6.85;2.17;;;6.10;99.90;;;;;;5053191;28;20076;-40
2022/04/02 10:45:39;;;;;;;4.40;1.33;;;6.00;99.90;;;;;;5061924;28;20048;-41
2022/04/02 10:48:10;;;;;;;4.15;1.60;;;6.00;99.90;;;;;;5080550;28;20059;-41
2022/04/02 10:50:41;;;;;;;4.78;1.80;;;6.00;99.30;;;;;;5078997;28;20044;-40
2022/04/02 10:53:17;;;;;;;3.67;1.60;;;6.00;99.90;;;;;;5075119;28;20550;-40
2022/04/02 10:55:48;;;;;;;4.60;2.17;;;6.40;99.90;;;;;;5075425;28;20174;-41
2022/04/02 10:58:14;;;;;;;3.67;1.25;;;6.90;99.90;;;;;;5075960;28;20051;-40
2022/04/02 11:00:46;;;;;;;6.10;1.90;;;7.20;99.90;;;;;;5080530;28;20534;-40
2022/04/02 11:03:42;;;;;;;3.43;1.60;;;7.30;99.90;;;;;;5080985;28;20048;-40
2022/04/02 11:06:09;;;;;;;5.25;2.30;;;7.40;98.30;;;;;;5080124;28;20209;-41
2022/04/02 11:08:35;;;;;;;4.50;1.98;;;7.30;99.80;;;;;;5054238;28;20056;-40
2022/04/02 11:11:21;;;;;;;3.08;1.92;;;6.90;99.90;;;;;;5069338;28;20082;-41
2022/04/02 11:13:52;;;;;;;7.40;2.03;;;6.40;98.70;;;;;;5075473;28;20679;-40
2022/04/02 11:16:23;;;;;;;5.55;2.00;;;6.70;99.90;;;;;;5079193;28;20080;-40
2022/04/02 11:21:57;;;;;;;3.10;1.60;;;6.80;98.70;;;;;;5079334;28;20091;-40
2022/04/02 11:24:30;;;;;;;3.15;1.33;;;6.60;99.00;;;;;;5074151;28;20119;-40
2022/04/02 11:26:58;;;;;;;3.50;1.42;;;6.50;99.60;;;;;;5083112;28;20512;-41
2022/04/02 11:29:25;;;;;;;4.20;1.75;;;6.30;99.90;;;;;;5054927;28;20063;-41
2022/04/02 11:31:53;;;;;;;6.18;1.50;;;6.10;99.90;;;;;;5081528;28;20084;-40
2022/04/02 11:34:20;;;;;;;5.15;1.58;;;6.20;99.90;;;;;;5078127;28;20130;-41
2022/04/02 11:36:47;;;;;;;8.15;1.88;;;6.20;99.90;;;;;;5080546;28;20043;-42
2022/04/02 11:39:32;;;;;;;3.80;1.50;;;6.30;99.90;;;;;;5075673;28;20048;-41
2022/04/02 11:42:03;;;;;;;4.72;1.55;;;6.60;99.90;;;;;;5073100;28;20465;-40
2022/04/02 11:44:37;;;;;;;6.03;1.50;;;6.90;99.90;;;;;;5072422;28;20051;-40
2022/04/02 11:47:05;;;;;;;5.13;2.03;;;6.80;99.90;;;;;;5078637;28;20127;-40
2022/04/02 11:49:40;;;;;;;3.22;1.13;;;6.80;99.90;;;;;;5079211;28;20101;-41
2022/04/02 11:52:12;;;;;;;4.07;1.42;;;6.90;99.90;;;;;;5079477;28;20044;-40
2022/04/02 11:54:56;;;;;;;3.13;1.50;;;6.80;99.90;;;;;;5078327;28;20538;-40
2022/04/02 11:57:21;;;;;;;;;;;6.70;99.50;;;;;;5079191;28;20054;-40
2022/04/02 12:00:05;;;;;;;5.93;1.52;;;6.50;98.60;;;;;;5077880;28;20403;-40
2022/04/02 12:02:37;;;;;;;3.97;1.60;;;6.30;97.60;;;;;;5052758;28;20091;-40
2022/04/02 12:05:06;;;;;;;5.55;1.73;;;6.50;99.90;;;;;;5076885;28;20445;-40
2022/04/02 12:07:48;;;;;;;4.60;1.58;;;6.60;99.90;;;;;;5077824;28;20550;-40
2022/04/02 12:10:21;;;;;;;5.70;1.60;;;6.80;99.50;;;;;;5073503;28;20051;-41
2022/04/02 12:12:49;;;;;;;3.38;1.38;;;6.90;99.60;;;;;;5079463;28;20605;-40
2022/04/02 12:15:16;;;;;;;3.22;1.27;;;7.00;99.80;;;;;;5079722;28;20490;-40
2022/04/02 12:17:51;;;;;;;6.00;1.50;;;6.90;99.20;;;;;;5078581;28;20040;-40
2022/04/02 12:20:33;;;;;;;3.75;1.30;;;6.90;99.10;;;;;;5079275;28;20044;-40
2022/04/02 12:23:16;;;;;;;3.65;1.67;;;6.80;98.70;;;;;;5067896;28;20049;-40
2022/04/02 12:25:55;;;;;;;4.28;1.70;;;6.60;99.10;;;;;;5079403;28;20089;-40
2022/04/02 12:28:21;;;;;;;4.60;1.42;;;6.80;99.90;;;;;;5079765;28;20040;-40
2022/04/02 12:30:49;;;;;;;5.85;1.75;;;6.70;99.60;;;;;;5079164;28;20044;-40
2022/04/02 12:33:18;;;;;;;4.05;1.65;;;6.60;96.70;;;;;;5078367;28;20052;-40
2022/04/02 12:35:56;;;;;;;4.80;1.50;;;6.70;98.00;;;;;;5078507;28;20565;-41
2022/04/02 12:38:31;;;;;;;11.23;1.63;;;6.90;99.90;;;;;;5066408;28;20047;-40
2022/04/02 12:40:59;;;;;;;3.65;1.30;;;7.20;99.60;;;;;;5080793;28;20051;-40
2022/04/02 12:43:33;;;;;;;5.82;1.80;;;7.30;99.00;;;;;;5083506;28;20079;-41
2022/04/02 12:46:00;;;;;;;2.40;1.10;;;6.90;97.30;;;;;;5074174;28;20060;-40
2022/04/02 12:48:45;;;;;;;4.43;1.35;;;6.60;96.40;;;;;;5076101;28;20053;-39
2022/04/02 12:51:16;;;;;;;3.65;1.35;;;6.20;98.70;;;;;;5077979;28;20047;-40
2022/04/02 12:53:47;;;;;;;3.60;1.90;;;6.20;98.20;;;;;;5059120;28;20059;-40
2022/04/02 12:56:24;;;;;;;6.95;1.77;;;6.60;99.60;;;;;;5073940;28;20044;-40
2022/04/02 12:58:52;;;;;;;4.28;1.55;;;6.60;97.90;;;;;;5075842;28;20082;-40
2022/04/02 13:01:21;;;;;;;3.88;1.70;;;6.40;97.80;;;;;;5078670;28;20131;-42
2022/04/02 13:04:12;;;;;;;3.13;1.30;;;6.50;99.60;;;;;;5074898;28;20052;-39
2022/04/02 13:06:48;;;;;;;3.53;1.77;;;6.60;98.70;;;;;;5051053;28;20060;-40
2022/04/02 13:09:35;;;;;;;5.70;1.58;;;6.50;98.40;;;;;;5076896;28;20044;-40
2022/04/02 13:12:03;;;;;;;5.55;1.50;;;6.30;97.90;;;;;;5058364;28;20060;-40
2022/04/02 13:14:34;;;;;;;6.03;1.63;;;6.20;98.90;;;;;;5049204;28;20506;-39
2022/04/02 13:17:10;;;;;;;3.75;1.60;;;6.10;99.60;;;;;;5053612;28;20368;-40
2022/04/02 13:22:47;;;;;;;3.88;1.15;;;6.30;98.10;;;;;;5061358;28;20117;-40